createdAt,value
2022-10-07T00:02:38.237Z,100752.53
2022-10-07T00:05:27.187Z,100746.50
2022-10-07T00:08:15.923Z,100751.09
2022-10-07T00:11:09.722Z,100749.13
2022-10-07T00:14:02.210Z,100739.69
2022-10-07T00:16:50.246Z,100737.13
2022-10-07T00:19:38.875Z,100743.78
2022-10-07T00:22:32.868Z,100738.59
2022-10-07T00:25:23.879Z,100728.75
2022-10-07T00:28:11.956Z,100738.22
2022-10-07T00:31:03.580Z,100733.16
2022-10-07T00:33:53.943Z,100725.94
2022-10-07T00:36:43.657Z,100728.75
2022-10-07T00:39:32.269Z,100723.31
2022-10-07T00:42:21.408Z,100720.72
2022-10-07T00:45:15.649Z,100716.47
2022-10-07T00:48:05.749Z,100705.88
2022-10-07T00:50:59.770Z,100702.66
2022-10-07T00:53:51.688Z,100699.28
2022-10-07T00:56:41.513Z,100692.47
2022-10-07T00:59:30.101Z,100689.13
2022-10-07T01:02:18.536Z,100693.16
2022-10-07T01:05:11.013Z,100683.13
2022-10-07T01:08:00.384Z,100673.09
2022-10-07T01:11:00.082Z,100672.13
2022-10-07T01:14:00.538Z,100679.16
2022-10-07T01:17:04.149Z,100671.94
2022-10-07T01:20:21.865Z,100669.13
2022-10-07T01:23:53.649Z,100668.16
2022-10-07T01:27:20.927Z,100668.16
2022-10-07T01:30:10.993Z,100667.13
2022-10-07T01:33:06.771Z,100663.69
2022-10-07T01:35:56.874Z,100656.09
2022-10-07T01:38:50.768Z,100655.13
2022-10-07T01:41:40.543Z,100650.06
2022-10-07T01:44:32.205Z,100650.28
2022-10-07T01:47:20.499Z,100644.28
2022-10-07T01:50:14.257Z,100638.47
2022-10-07T01:53:27.914Z,100632.47
2022-10-07T01:56:38.458Z,100629.91
2022-10-07T01:59:59.956Z,100623.88
2022-10-07T02:03:07.791Z,100624.50
2022-10-07T02:06:08.118Z,100622.66
2022-10-07T02:08:58.407Z,100632.31
2022-10-07T02:11:52.548Z,100629.50
2022-10-07T02:14:50.716Z,100626.75
2022-10-07T02:17:58.181Z,100623.13
2022-10-07T02:20:52.029Z,100620.75
2022-10-07T02:23:44.477Z,100620.81
2022-10-07T02:26:34.968Z,100615.38
2022-10-07T02:29:24.514Z,100608.78
2022-10-07T02:32:21.854Z,100595.34
2022-10-07T02:35:23.533Z,100586.56
2022-10-07T02:38:16.171Z,100589.94
2022-10-07T02:41:11.949Z,100588.50
2022-10-07T02:44:13.531Z,100583.91
2022-10-07T02:47:10.188Z,100588.88
2022-10-07T02:50:02.652Z,100587.91
2022-10-07T02:52:54.560Z,100582.06
2022-10-07T02:55:45.483Z,100573.88
2022-10-07T02:58:37.298Z,100574.91
2022-10-07T03:01:33.362Z,100574.72
2022-10-07T03:04:21.673Z,100573.91
2022-10-07T03:07:13.886Z,100574.72
2022-10-07T03:10:28.810Z,100574.94
2022-10-07T03:13:17.400Z,100570.34
2022-10-07T03:16:10.714Z,100574.38
2022-10-07T03:19:00.086Z,100575.56
2022-10-07T03:22:12.557Z,100572.78
2022-10-07T03:25:02.267Z,100579.44
2022-10-07T03:27:50.127Z,100561.59
2022-10-07T03:30:37.906Z,100555.78
2022-10-07T03:33:26.798Z,100551.19
2022-10-07T03:36:15.358Z,100553.38
2022-10-07T03:39:07.961Z,100554.56
2022-10-07T03:41:57.685Z,100554.97
2022-10-07T03:44:46.557Z,100549.34
2022-10-07T03:47:35.845Z,100544.50
2022-10-07T03:50:24.111Z,100540.72
2022-10-07T03:53:11.881Z,100540.72
2022-10-07T03:56:00.501Z,100531.69
2022-10-07T03:58:48.687Z,100535.50
2022-10-07T04:01:38.085Z,100534.38
2022-10-07T04:04:26.208Z,100529.97
2022-10-07T04:07:14.116Z,100533.59
2022-10-07T04:10:01.566Z,100523.78
2022-10-07T04:12:51.447Z,100527.56
2022-10-07T04:15:40.414Z,100519.56
2022-10-07T04:18:27.869Z,100529.97
2022-10-07T04:21:15.356Z,100526.78
2022-10-07T04:24:03.187Z,100515.16
2022-10-07T04:26:51.590Z,100524.00
2022-10-07T04:29:41.477Z,100525.38
2022-10-07T04:32:29.056Z,100514.75
2022-10-07T04:35:16.519Z,100508.53
2022-10-07T04:38:04.433Z,100507.56
2022-10-07T04:40:52.604Z,100508.31
2022-10-07T04:43:41.647Z,100509.53
2022-10-07T04:46:34.937Z,100502.75
2022-10-07T04:49:29.161Z,100498.13
2022-10-07T04:52:19.202Z,100492.72
2022-10-07T04:55:07.280Z,100495.09
2022-10-07T04:57:54.683Z,100493.53
2022-10-07T05:00:44.772Z,100503.94
2022-10-07T05:03:33.801Z,100498.72
2022-10-07T05:06:21.326Z,100492.13
2022-10-07T05:09:08.972Z,100493.72
2022-10-07T05:12:00.341Z,100484.53
2022-10-07T05:14:48.700Z,100485.50
2022-10-07T05:17:38.265Z,100487.53
2022-10-07T05:20:27.492Z,100481.16
2022-10-07T05:23:17.037Z,100474.75
2022-10-07T05:26:08.840Z,100475.75
2022-10-07T05:28:57.548Z,100473.34
2022-10-07T05:31:51.819Z,100469.56
2022-10-07T05:34:45.027Z,100474.94
2022-10-07T05:37:33.715Z,100471.13
2022-10-07T05:40:21.761Z,100468.91
2022-10-07T05:43:11.755Z,100471.09
2022-10-07T05:46:01.803Z,100471.50
2022-10-07T05:48:53.463Z,100457.91
2022-10-07T05:51:44.246Z,100465.91
2022-10-07T05:54:33.887Z,100464.28
2022-10-07T05:57:22.829Z,100459.69
2022-10-07T06:00:12.927Z,100465.53
2022-10-07T06:03:07.806Z,100460.91
2022-10-07T06:05:37.152Z,100453.69
2022-10-07T06:08:06.350Z,100456.28
2022-10-07T06:10:54.044Z,100459.66
2022-10-07T06:13:24.110Z,100456.69
2022-10-07T06:15:53.701Z,100457.06
2022-10-07T06:18:22.885Z,100445.47
2022-10-07T06:20:56.557Z,100444.47
2022-10-07T06:23:27.941Z,100447.31
2022-10-07T06:26:00.911Z,100438.84
2022-10-07T06:28:34.102Z,100438.22
2022-10-07T06:31:06.447Z,100455.84
2022-10-07T06:33:37.029Z,100451.03
2022-10-07T06:36:07.896Z,100448.78
2022-10-07T06:38:37.060Z,100457.00
2022-10-07T06:41:08.165Z,100453.38
2022-10-07T06:43:37.875Z,100449.75
2022-10-07T06:46:11.587Z,100450.38
2022-10-07T06:48:42.928Z,100445.31
2022-10-07T06:51:16.408Z,100449.09
2022-10-07T06:53:46.279Z,100442.50
2022-10-07T06:56:16.731Z,100458.88
2022-10-07T06:58:46.229Z,100452.41
2022-10-07T07:01:17.944Z,100451.16
2022-10-07T07:03:47.170Z,100453.91
2022-10-07T07:06:17.681Z,100458.69
2022-10-07T07:08:49.973Z,100451.88
2022-10-07T07:11:41.067Z,100450.78
2022-10-07T07:14:19.164Z,100454.38
2022-10-07T07:16:55.186Z,100451.31
2022-10-07T07:19:26.895Z,100450.03
2022-10-07T07:21:56.969Z,100457.41
2022-10-07T07:24:28.177Z,100447.03
2022-10-07T07:26:58.634Z,100443.75
2022-10-07T07:29:30.697Z,100447.66
2022-10-07T07:32:02.286Z,100437.94
2022-10-07T07:34:34.071Z,100441.88
2022-10-07T07:37:03.204Z,100444.56
2022-10-07T07:39:39.313Z,100441.00
2022-10-07T07:42:15.778Z,100442.31
2022-10-07T07:44:45.869Z,100446.41
2022-10-07T07:47:18.032Z,100431.59
2022-10-07T07:49:51.045Z,100422.19
2022-10-07T07:52:29.170Z,100426.88
2022-10-07T07:54:59.968Z,100421.91
2022-10-07T07:57:32.473Z,100419.44
2022-10-07T08:00:07.059Z,100425.81
2022-10-07T08:02:43.456Z,100423.09
2022-10-07T08:05:22.863Z,100426.88
2022-10-07T08:07:54.331Z,100422.06
2022-10-07T08:10:26.021Z,100423.00
2022-10-07T08:12:56.712Z,100424.03
2022-10-07T08:15:25.828Z,100416.06
2022-10-07T08:17:55.218Z,100413.69
2022-10-07T08:20:24.861Z,100409.44
2022-10-07T08:22:58.841Z,100407.41
2022-10-07T08:25:29.622Z,100412.63
2022-10-07T08:28:03.503Z,100401.13
2022-10-07T08:30:34.114Z,100402.91
2022-10-07T08:33:03.395Z,100395.34
2022-10-07T08:35:32.420Z,100389.91
2022-10-07T08:38:01.416Z,100394.97
2022-10-07T08:40:30.770Z,100389.56
2022-10-07T08:43:00.264Z,100387.75
2022-10-07T08:45:32.721Z,100380.44
2022-10-07T08:48:08.353Z,100378.28
2022-10-07T08:50:48.196Z,100378.50
2022-10-07T08:53:22.298Z,100373.13
2022-10-07T08:55:56.316Z,100376.25
2022-10-07T08:58:43.577Z,100372.22
2022-10-07T09:01:27.797Z,100376.56
2022-10-07T09:04:07.536Z,100360.69
2022-10-07T09:06:42.326Z,100360.81
2022-10-07T09:09:16.541Z,100369.63
2022-10-07T09:11:49.472Z,100361.28
2022-10-07T09:14:30.037Z,100357.97
2022-10-07T09:17:10.786Z,100350.94
2022-10-07T09:19:46.592Z,100353.44
2022-10-07T09:22:21.515Z,100347.50
2022-10-07T09:24:54.394Z,100344.47
2022-10-07T09:27:23.393Z,100343.56
2022-10-07T09:29:52.820Z,100338.44
2022-10-07T09:32:23.334Z,100339.34
2022-10-07T09:34:53.393Z,100334.44
2022-10-07T09:37:24.591Z,100333.69
2022-10-07T09:39:57.200Z,100330.34
2022-10-07T09:42:40.160Z,100321.50
2022-10-07T09:45:23.580Z,100319.44
2022-10-07T09:47:57.217Z,100322.41
2022-10-07T09:50:37.000Z,100318.97
2022-10-07T09:53:16.728Z,100319.50
2022-10-07T09:55:46.352Z,100317.44
2022-10-07T09:58:22.558Z,100313.75
2022-10-07T10:00:54.385Z,100314.31
2022-10-07T10:03:31.745Z,100315.13
2022-10-07T10:06:03.395Z,100310.38
2022-10-07T10:08:35.489Z,100307.00
2022-10-07T10:11:06.994Z,100307.00
2022-10-07T10:13:39.446Z,100302.75
2022-10-07T10:16:36.198Z,100301.44
2022-10-07T10:19:23.764Z,100294.03
2022-10-07T10:21:55.589Z,100296.44
2022-10-07T10:24:40.279Z,100293.75
2022-10-07T10:27:14.212Z,100288.75
2022-10-07T10:29:53.413Z,100285.81
2022-10-07T10:32:48.808Z,100292.72
2022-10-07T10:35:26.145Z,100276.88
2022-10-07T10:38:17.557Z,100272.13
2022-10-07T10:40:57.396Z,100270.28
2022-10-07T10:43:35.451Z,100262.63
2022-10-07T10:46:27.895Z,100264.69
2022-10-07T10:49:10.799Z,100256.78
2022-10-07T10:51:57.725Z,100255.19
2022-10-07T10:54:33.930Z,100241.16
2022-10-07T10:57:14.820Z,100241.94
2022-10-07T11:00:04.625Z,100238.75
2022-10-07T11:03:00.463Z,100237.16
2022-10-07T11:05:33.870Z,100229.22
2022-10-07T11:08:13.115Z,100223.69
2022-10-07T11:10:48.834Z,100227.34
2022-10-07T11:13:29.757Z,100219.44
2022-10-07T11:16:06.008Z,100220.22
2022-10-07T11:18:42.492Z,100215.75
2022-10-07T11:21:18.503Z,100212.81
2022-10-07T11:24:00.070Z,100205.41
2022-10-07T11:26:37.529Z,100204.06
2022-10-07T11:29:20.995Z,100204.06
2022-10-07T11:31:57.916Z,100191.06
2022-10-07T11:34:39.542Z,100189.97
2022-10-07T11:37:17.354Z,100189.97
2022-10-07T11:39:48.406Z,100188.09
2022-10-07T11:42:22.834Z,100180.91
2022-10-07T11:45:00.368Z,100178.25
2022-10-07T11:47:36.837Z,100172.69
2022-10-07T11:50:11.163Z,100168.72
2022-10-07T11:52:43.538Z,100167.13
2022-10-07T11:55:23.502Z,100162.06
2022-10-07T11:57:57.205Z,100167.06
2022-10-07T12:00:29.239Z,100167.53
2022-10-07T12:02:59.031Z,100159.53
2022-10-07T12:06:11.656Z,100148.66
2022-10-07T12:08:43.191Z,100138.53
2022-10-07T12:11:48.760Z,100134.56
2022-10-07T12:14:59.931Z,100135.16
2022-10-07T12:17:30.332Z,100124.06
2022-10-07T12:20:46.470Z,100130.75
2022-10-07T12:23:43.809Z,100119.97
2022-10-07T12:26:46.355Z,100110.50
2022-10-07T12:29:34.108Z,100111.06
2022-10-07T12:32:03.781Z,100104.75
2022-10-07T12:34:43.476Z,100101.84
2022-10-07T12:37:50.147Z,100088.41
2022-10-07T12:40:26.504Z,100092.97
2022-10-07T12:43:10.364Z,100086.69
2022-10-07T12:45:43.582Z,100082.00
2022-10-07T12:48:20.373Z,100083.59
2022-10-07T12:50:54.170Z,100082.28
2022-10-07T12:53:27.838Z,100069.34
2022-10-07T12:55:58.155Z,100067.50
2022-10-07T12:59:31.161Z,100066.16
2022-10-07T13:02:44.271Z,100058.75
2022-10-07T13:06:08.589Z,100051.59
2022-10-07T13:09:31.686Z,100045.56
2022-10-07T13:12:16.794Z,100047.38
2022-10-07T13:15:04.696Z,100046.31
2022-10-07T13:17:46.455Z,100043.38
2022-10-07T13:20:37.856Z,100039.97
2022-10-07T13:23:16.537Z,100042.63
2022-10-07T13:25:49.328Z,100042.97
2022-10-07T13:28:22.482Z,100028.19
2022-10-07T13:30:53.910Z,100030.03
2022-10-07T13:33:28.085Z,100021.56
2022-10-07T13:36:17.049Z,100019.97
2022-10-07T13:38:47.770Z,100012.06
2022-10-07T13:41:22.964Z,100007.31
2022-10-07T13:43:55.197Z,100006.03
2022-10-07T13:46:27.141Z,99997.38
2022-10-07T13:48:58.631Z,99996.84
2022-10-07T13:51:35.449Z,99990.53
2022-10-07T13:54:07.893Z,99989.78
2022-10-07T13:56:41.869Z,99988.47
2022-10-07T13:59:17.081Z,99979.75
2022-10-07T14:01:48.814Z,99975.78
2022-10-07T14:04:26.084Z,99966.84
2022-10-07T14:07:01.673Z,99964.19
2022-10-07T14:09:45.215Z,99964.19
2022-10-07T14:12:20.086Z,99964.97
2022-10-07T14:14:51.717Z,99964.41
2022-10-07T14:17:28.140Z,99953.34
2022-10-07T14:20:05.903Z,99950.97
2022-10-07T14:22:39.175Z,99947.53
2022-10-07T14:25:19.428Z,99944.09
2022-10-07T14:28:17.970Z,99929.59
2022-10-07T14:31:05.931Z,99928.25
2022-10-07T14:34:07.030Z,99925.88
2022-10-07T14:36:37.490Z,99924.84
2022-10-07T14:39:31.375Z,99921.16
2022-10-07T14:42:00.456Z,99912.22
2022-10-07T14:44:30.106Z,99913.00
2022-10-07T14:47:07.086Z,99908.75
2022-10-07T14:49:36.385Z,99906.91
2022-10-07T14:52:06.989Z,99904.50
2022-10-07T14:54:36.161Z,99893.94
2022-10-07T14:57:05.213Z,99897.66
2022-10-07T14:59:35.461Z,99890.81
2022-10-07T15:02:04.796Z,99887.09
2022-10-07T15:04:34.029Z,99883.66
2022-10-07T15:07:03.162Z,99880.78
2022-10-07T15:09:33.570Z,99879.22
2022-10-07T15:12:02.614Z,99881.06
2022-10-07T15:14:31.595Z,99882.91
2022-10-07T15:17:00.955Z,99877.91
2022-10-07T15:19:30.092Z,99882.41
2022-10-07T15:22:00.098Z,99885.03
2022-10-07T15:24:30.235Z,99873.75
2022-10-07T15:27:01.450Z,99869.78
2022-10-07T15:29:30.479Z,99863.44
2022-10-07T15:31:59.499Z,99861.84
2022-10-07T15:34:28.494Z,99871.38
2022-10-07T15:36:58.482Z,99869.28
2022-10-07T15:39:27.530Z,99877.69
2022-10-07T15:41:56.575Z,99864.00
2022-10-07T15:44:29.925Z,99871.91
2022-10-07T15:46:59.026Z,99863.47
2022-10-07T15:49:28.239Z,99865.63
2022-10-07T15:52:15.696Z,99856.63
2022-10-07T15:54:46.490Z,99851.63
2022-10-07T15:57:15.975Z,99860.63
2022-10-07T15:59:46.884Z,99853.50
2022-10-07T16:02:19.147Z,99853.78
2022-10-07T16:04:48.473Z,99841.34
2022-10-07T16:07:17.871Z,99866.97
2022-10-07T16:09:46.894Z,99859.31
2022-10-07T16:12:15.943Z,99850.34
2022-10-07T16:14:47.404Z,99855.63
2022-10-07T16:17:16.440Z,99847.19
2022-10-07T16:19:45.461Z,99845.88
2022-10-07T16:22:14.497Z,99846.16
2022-10-07T16:24:43.531Z,99853.28
2022-10-07T16:27:12.555Z,99845.41
2022-10-07T16:29:58.856Z,99840.66
2022-10-07T16:32:29.266Z,99853.63
2022-10-07T16:34:58.278Z,99854.19
2022-10-07T16:37:29.375Z,99863.16
2022-10-07T16:39:58.363Z,99850.50
2022-10-07T16:42:29.701Z,99838.66
2022-10-07T16:44:58.668Z,99839.47
2022-10-07T16:47:29.063Z,99852.66
2022-10-07T16:49:58.105Z,99850.81
2022-10-07T16:52:27.393Z,99855.81
2022-10-07T16:54:56.457Z,99854.25
2022-10-07T16:57:25.526Z,99853.22
2022-10-07T16:59:55.564Z,99853.50
2022-10-07T17:02:24.593Z,99841.66
2022-10-07T17:04:55.197Z,99858.28
2022-10-07T17:07:24.255Z,99851.22
2022-10-07T17:09:53.276Z,99849.88
2022-10-07T17:12:24.434Z,99852.03
2022-10-07T17:14:54.084Z,99852.81
2022-10-07T17:17:23.518Z,99858.63
2022-10-07T17:19:53.926Z,99847.06
2022-10-07T17:22:23.470Z,99856.03
2022-10-07T17:24:52.558Z,99854.44
2022-10-07T17:27:21.595Z,99852.88
2022-10-07T17:29:50.740Z,99860.78
2022-10-07T17:32:19.739Z,99855.25
2022-10-07T17:34:48.805Z,99852.38
2022-10-07T17:37:19.206Z,99850.28
2022-10-07T17:39:49.332Z,99853.47
2022-10-07T17:42:18.309Z,99853.19
2022-10-07T17:44:47.887Z,99850.28
2022-10-07T17:47:16.957Z,99857.66
2022-10-07T17:49:45.964Z,99855.56
2022-10-07T17:52:15.268Z,99861.09
2022-10-07T17:54:45.685Z,99851.88
2022-10-07T17:57:14.721Z,99847.94
2022-10-07T17:59:43.772Z,99854.00
2022-10-07T18:02:12.750Z,99850.56
2022-10-07T18:04:41.880Z,99849.81
2022-10-07T18:07:11.228Z,99851.91
2022-10-07T18:09:40.352Z,99848.22
2022-10-07T18:12:27.932Z,99849.81
2022-10-07T18:15:14.341Z,99846.41
2022-10-07T18:17:43.530Z,99844.56
2022-10-07T18:20:15.338Z,99839.03
2022-10-07T18:22:45.109Z,99835.91
2022-10-07T18:25:14.152Z,99836.66
2022-10-07T18:27:44.797Z,99838.25
2022-10-07T18:30:14.255Z,99828.00
2022-10-07T18:32:43.378Z,99834.81
2022-10-07T18:35:12.897Z,99823.50
2022-10-07T18:37:41.923Z,99815.63
2022-10-07T18:40:11.950Z,99824.06
2022-10-07T18:42:41.901Z,99828.53
2022-10-07T18:45:12.702Z,99819.06
2022-10-07T18:47:41.683Z,99824.03
2022-10-07T18:50:11.000Z,99814.56
2022-10-07T18:52:40.047Z,99812.47
2022-10-07T18:55:10.137Z,99820.34
2022-10-07T18:57:39.076Z,99815.59
2022-10-07T19:00:11.848Z,99819.56
2022-10-07T19:02:42.995Z,99822.97
2022-10-07T19:05:12.065Z,99821.69
2022-10-07T19:07:41.073Z,99827.19
2022-10-07T19:10:10.987Z,99826.94
2022-10-07T19:12:57.533Z,99829.31
2022-10-07T19:15:27.953Z,99827.72
2022-10-07T19:17:57.206Z,99825.88
2022-10-07T19:20:26.606Z,99824.56
2022-10-07T19:22:55.634Z,99821.66
2022-10-07T19:25:42.039Z,99826.66
2022-10-07T19:28:11.293Z,99826.13
2022-10-07T19:30:44.396Z,99824.03
2022-10-07T19:33:13.420Z,99832.44
2022-10-07T19:35:42.495Z,99825.31
2022-10-07T19:38:11.915Z,99830.84
2022-10-07T19:40:42.210Z,99818.22
2022-10-07T19:43:12.347Z,99820.84
2022-10-07T19:45:44.024Z,99812.44
2022-10-07T19:48:14.755Z,99817.16
2022-10-07T19:50:43.896Z,99822.13
2022-10-07T19:53:13.020Z,99818.19
2022-10-07T19:55:46.088Z,99816.09
2022-10-07T19:58:15.100Z,99818.44
2022-10-07T20:00:45.530Z,99813.97
2022-10-07T20:03:33.203Z,99816.84
2022-10-07T20:06:20.574Z,99814.50
2022-10-07T20:09:10.001Z,99812.09
2022-10-07T20:11:57.527Z,99809.75
2022-10-07T20:14:45.460Z,99800.25
2022-10-07T20:17:34.164Z,99800.22
2022-10-07T20:20:21.839Z,99800.22
2022-10-07T20:23:09.573Z,99798.38
2022-10-07T20:25:57.202Z,99790.50
2022-10-07T20:28:44.746Z,99792.81
2022-10-07T20:31:36.661Z,99798.34
2022-10-07T20:34:26.595Z,99789.16
2022-10-07T20:37:13.947Z,99789.41
2022-10-07T20:40:19.077Z,99788.09
2022-10-07T20:43:06.374Z,99791.47
2022-10-07T20:45:59.754Z,99794.94
2022-10-07T20:48:50.522Z,99794.41
2022-10-07T20:51:40.373Z,99790.22
2022-10-07T20:54:28.516Z,99792.84
2022-10-07T20:57:19.107Z,99790.75
2022-10-07T21:00:15.950Z,99784.72
2022-10-07T21:03:03.551Z,99786.00
2022-10-07T21:05:58.294Z,99792.81
2022-10-07T21:08:47.475Z,99788.34
2022-10-07T21:11:35.144Z,99784.94
2022-10-07T21:14:23.340Z,99791.22
2022-10-07T21:17:11.242Z,99786.22
2022-10-07T21:19:58.511Z,99780.72
2022-10-07T21:22:45.861Z,99785.16
2022-10-07T21:25:35.205Z,99773.84
2022-10-07T21:28:25.143Z,99782.50
2022-10-07T21:31:17.374Z,99785.09
2022-10-07T21:34:07.930Z,99778.53
2022-10-07T21:36:57.252Z,99783.22
2022-10-07T21:39:44.420Z,99780.09
2022-10-07T21:42:33.221Z,99772.22
2022-10-07T21:45:20.835Z,99770.09
2022-10-07T21:48:08.229Z,99774.56
2022-10-07T21:50:56.055Z,99768.25
2022-10-07T21:53:44.299Z,99768.25
2022-10-07T21:56:33.979Z,99765.91
2022-10-07T21:59:22.778Z,99766.41
2022-10-07T22:02:10.293Z,99759.25
2022-10-07T22:04:57.701Z,99765.81
2022-10-07T22:08:02.948Z,99773.16
2022-10-07T22:10:50.246Z,99763.44
2022-10-07T22:13:39.989Z,99769.75
2022-10-07T22:16:29.626Z,99770.56
2022-10-07T22:19:18.446Z,99766.06
2022-10-07T22:22:06.591Z,99764.22
2022-10-07T22:24:54.262Z,99767.63
2022-10-07T22:27:41.690Z,99767.88
2022-10-07T22:30:29.351Z,99757.13
2022-10-07T22:33:18.125Z,99765.53
2022-10-07T22:36:06.615Z,99761.06
2022-10-07T22:38:55.289Z,99760.00
2022-10-07T22:41:42.729Z,99763.69
2022-10-07T22:44:31.605Z,99764.75
2022-10-07T22:47:19.690Z,99758.97
2022-10-07T22:50:10.368Z,99753.97
2022-10-07T22:52:57.809Z,99755.28
2022-10-07T22:55:45.187Z,99759.72
2022-10-07T22:58:32.732Z,99749.72
2022-10-07T23:01:21.299Z,99755.78
2022-10-07T23:04:08.836Z,99743.19
2022-10-07T23:06:57.547Z,99745.28
2022-10-07T23:09:45.401Z,99742.41
2022-10-07T23:12:32.935Z,99737.69
2022-10-07T23:15:20.877Z,99723.50
2022-10-07T23:18:08.341Z,99723.25
2022-10-07T23:21:02.469Z,99726.69
2022-10-07T23:23:54.961Z,99728.25
2022-10-07T23:26:43.770Z,99723.25
2022-10-07T23:29:32.822Z,99720.88
2022-10-07T23:32:20.498Z,99722.50
2022-10-07T23:35:08.949Z,99713.81
2022-10-07T23:37:56.410Z,99713.00
2022-10-07T23:40:45.087Z,99709.06
2022-10-07T23:43:33.818Z,99712.22
2022-10-07T23:46:23.365Z,99710.09
2022-10-07T23:49:11.029Z,99713.53
2022-10-07T23:51:58.982Z,99713.53
2022-10-07T23:54:46.166Z,99725.84
2022-10-07T23:57:35.024Z,99716.94
